WXM80 ListenWXM80 Stop

You find our weather info also at:

UK Metoffice

WeatherCloud

Weather Underground

Northeastern Weather Network

AWEKAS

Citizen Weather Observer Program (CWOP)

HAMweather, WeatherForYou, PWS Weather


Weather Underground History page Text

Daily Summary for November 22, 2017 Units:  Metric    English   Both
« Previous Day
Next Day »
Daily Weekly Monthly Yearly Custom
  High: Low: Average:
Temperature: 12.1 °C 3.4 °C 9.2 °C
Dew Point: 11.4 °C -1.7 °C 6.3 °C
Humidity: 96 % 68 % 83 %
Wind Speed: 18.2 km/h 0 km/h 4.8 km/h
Wind Gust: 35.2 km/h - -
Wind:- - West
Pressure: 1018.5 hPa 1003.9 hPa -
Precipitation: 2.79 mm    
Historical Graphs
 
 
Tabular Data for November 22, 2017
Time Temperature Dew Point Pressure Wind Wind Speed Wind Gust Humidity Rainfall Rate (Hourly)
00:01 11.7 °C 7.4 °C 1017.2 hPa SW 10.3 km/h 14.5 km/h 75 % 0 mm
00:06 11.7 °C 7.6 °C 1017.2 hPa SSW 8 km/h 19.3 km/h 76 % 0 mm
00:11 11.7 °C 7.6 °C 1017.2 hPa SSW 4.8 km/h 11.3 km/h 76 % 0 mm
00:17 11.8 °C 7.7 °C 1017.2 hPa WSW 6.3 km/h 6.4 km/h 76 % 0 mm
00:22 11.7 °C 7.6 °C 1016.8 hPa SW 6.8 km/h 11.1 km/h 76 % 0 mm
00:27 11.8 °C 7.7 °C 1009 hPa SW 0.8 km/h 3.7 km/h 76 % 0 mm
00:41 11.8 °C 7.9 °C 1016.8 hPa SW 2.9 km/h 5.6 km/h 77 % 0 mm
00:46 11.8 °C 7.9 °C 1016.5 hPa South 1.3 km/h 4.8 km/h 77 % 0 mm
00:51 11.8 °C 7.9 °C 1016.8 hPa SW 6.1 km/h 9.3 km/h 77 % 0 mm
00:56 11.8 °C 7.9 °C 1016.5 hPa SW 4.3 km/h 7.4 km/h 77 % 0 mm
01:01 11.8 °C 7.9 °C 1016.5 hPa SW 3.7 km/h 5.6 km/h 77 % 0 mm
01:06 11.8 °C 7.9 °C 1016.5 hPa SSW 5.1 km/h 7.4 km/h 77 % 0 mm
01:13 11.8 °C 7.9 °C 1016.5 hPa SSW 3.9 km/h 9.3 km/h 77 % 0 mm
01:18 11.8 °C 8.1 °C 1008.4 hPa SSW 6.9 km/h 9.3 km/h 78 % 0 mm
01:23 11.8 °C 8.1 °C 1016.5 hPa SW 1.9 km/h 5.6 km/h 78 % 0 mm
01:29 11.8 °C 8.1 °C 1016.5 hPa SW 4.5 km/h 7.4 km/h 78 % 0 mm
01:34 11.8 °C 8.1 °C 1016.5 hPa SW 1.6 km/h 11.1 km/h 78 % 0 mm
01:39 11.8 °C 8.1 °C 1016.1 hPa SW 1.9 km/h 5.6 km/h 78 % 0 mm
01:44 11.8 °C 8.1 °C 1016.1 hPa South 8 km/h 11.1 km/h 78 % 0 mm
01:49 11.8 °C 8.1 °C 1016.1 hPa SSW 3.7 km/h 5.6 km/h 78 % 0 mm
02:14 11.7 °C 8.2 °C 1016.1 hPa WSW 1.1 km/h 5.6 km/h 79 % 0 mm
02:19 11.7 °C 8.2 °C 1016.1 hPa WSW 0.8 km/h   79 % 0 mm
02:24 11.7 °C 8.2 °C 1016.1 hPa WSW 0.3 km/h 1.9 km/h 79 % 0 mm
02:29 11.7 °C 8.2 °C 1016.1 hPa Calm     79 % 0 mm
02:33 11.6 °C 8.1 °C 1016.1 hPa Calm     79 % 0 mm
02:48 11.5 °C 8.2 °C 1015.8 hPa Calm     80 % 0 mm
02:58 11.4 °C 8.3 °C 1015.8 hPa Calm     81 % 0 mm
03:03 11.4 °C 8.5 °C 1015.8 hPa Calm     82 % 0 mm
03:13 11.4 °C 8.6 °C 1015.8 hPa Calm     83 % 0 mm
03:24 11.3 °C 8.7 °C 1015.8 hPa Calm     84 % 0 mm
03:29 11.3 °C 8.8 °C 1015.8 hPa Calm     85 % 0 mm
03:34 11.3 °C 8.8 °C 1015.5 hPa Calm     85 % 0 mm
03:39 11.2 °C 8.9 °C 1015.5 hPa Calm     86 % 0 mm
03:44 11.2 °C 9.1 °C 1007.3 hPa Calm     87 % 0 mm
03:49 11.1 °C 9.1 °C 1015.5 hPa Calm     87 % 0 mm
03:54 11.1 °C 9.2 °C 1015.1 hPa Calm     88 % 0 mm
04:09 10.8 °C 8.9 °C 1015.1 hPa Calm     88 % 0 mm
04:14 10.8 °C 8.9 °C 1015.1 hPa Calm     88 % 0 mm
04:19 10.7 °C 8.9 °C 1014.8 hPa Calm     89 % 0 mm
04:24 10.6 °C 8.9 °C 1014.8 hPa Calm     89 % 0 mm
04:29 10.6 °C 8.8 °C 1014.8 hPa Calm     89 % 0 mm
04:34 10.4 °C 8.7 °C 1014.8 hPa Calm     89 % 0 mm
04:39 10.4 °C 8.7 °C 1014.8 hPa Calm     89 % 0 mm
04:44 10.4 °C 8.7 °C 1014.8 hPa Calm     89 % 0 mm
04:49 10.4 °C 8.8 °C 1014.8 hPa Calm     90 % 0 mm
04:59 10.3 °C 8.8 °C 1014.4 hPa Calm     90 % 0 mm
05:04 10.3 °C 8.8 °C 1014.4 hPa Calm     90 % 0 mm
05:15 10.3 °C 8.9 °C 1014.1 hPa Calm     91 % 0 mm
05:20 10.3 °C 8.9 °C 1014.1 hPa Calm     91 % 0 mm
05:25 10.3 °C 8.9 °C 1013.8 hPa Calm     91 % 0 mm
05:30 10.3 °C 8.9 °C 1013.8 hPa Calm     91 % 0 mm
05:35 10.3 °C 8.9 °C 1005.6 hPa Calm     91 % 0 mm
05:36 10.3 °C 8.9 °C 1013.8 hPa Calm     91 % 0 mm
05:41 10.3 °C 8.9 °C 1013.4 hPa Calm     91 % 0 mm
05:46 10.3 °C 8.9 °C 1013.4 hPa Calm     91 % 0 mm
05:56 10.3 °C 8.9 °C 1013.4 hPa Calm     91 % 0 mm
06:06 10.3 °C 8.9 °C 1013.4 hPa Calm     91 % 0 mm
06:11 10.3 °C 8.9 °C 1013.4 hPa Calm     91 % 0 mm
06:16 10.3 °C 8.9 °C 1013.4 hPa Calm     91 % 0 mm
06:21 10.3 °C 8.9 °C 1013.4 hPa Calm     91 % 0.25 mm
06:26 10.4 °C 9.2 °C 1013.8 hPa Calm     92 % 0.25 mm
06:36 10.6 °C 9.6 °C 1005.6 hPa Calm     94 % 0.51 mm
06:42 10.6 °C 9.7 °C 1013.8 hPa Calm     94 % 0.51 mm
06:46 10.7 °C 9.7 °C 1005.3 hPa Calm   1.9 km/h 94 % 0.51 mm
06:57 10.8 °C 10.1 °C 1013.4 hPa WSW 1 km/h 3.7 km/h 95 % 0.76 mm
07:02 10.9 °C 10.2 °C 1013.4 hPa Calm     95 % 0.76 mm
07:07 11.1 °C 10.3 °C 1013.8 hPa WSW 0.8 km/h 3.7 km/h 95 % 1.02 mm
07:12 11.2 °C 10.4 °C 1005.6 hPa Calm   1.9 km/h 95 % 1.02 mm
07:17 11.3 °C 10.7 °C 1013.4 hPa Calm     96 % 1.02 mm
07:22 11.4 °C 10.8 °C 1013.4 hPa Calm     96 % 0.76 mm
07:27 11.5 °C 10.9 °C 1013.4 hPa Calm     96 % 0.76 mm
07:32 11.5 °C 10.9 °C 1013.1 hPa Calm     96 % 0.76 mm
07:37 11.6 °C 11 °C 1005.3 hPa Calm     96 % 0.51 mm
07:52 11.7 °C 11.1 °C 1012.8 hPa Calm     96 % 0.25 mm
07:57 11.7 °C 11.1 °C 1012.8 hPa Calm     96 % 0.25 mm
08:02 11.7 °C 11.1 °C 1012.8 hPa Calm     96 % 0.25 mm
08:07 11.8 °C 11.2 °C 1012.8 hPa Calm     96 % 0 mm
08:12 11.8 °C 11.2 °C 1005 hPa Calm     96 % 0 mm
08:27 11.8 °C 11 °C 1012.8 hPa Calm     95 % 0.25 mm
08:35 11.8 °C 11 °C 1012.8 hPa Calm     95 % 0.25 mm
08:40 11.8 °C 11 °C 1012.8 hPa Calm     95 % 0.25 mm
08:45 11.8 °C 11.1 °C 1012.8 hPa Calm     95 % 0.25 mm
08:50 11.8 °C 11.1 °C 1012.8 hPa Calm     95 % 0.25 mm
09:05 12 °C 11.4 °C 1012.8 hPa West 3.7 km/h 7.4 km/h 96 % 0.25 mm
09:10 12.1 °C 11.4 °C 1013.1 hPa WNW 3.1 km/h 5.6 km/h 96 % 0.25 mm
09:15 12.1 °C 11.4 °C 1013.1 hPa WSW 5 km/h 7.4 km/h 96 % 0.25 mm
09:20 12.1 °C 11.4 °C 1013.1 hPa West 1 km/h 5.6 km/h 96 % 0 mm
09:30 12.1 °C 11.4 °C 1012.8 hPa Calm     96 % 0 mm
09:35 12.1 °C 11.4 °C 1012.8 hPa West 1 km/h 3.2 km/h 96 % 0 mm
09:40 12.1 °C 11.4 °C 1012.8 hPa Calm   1.9 km/h 96 % 0 mm
09:46 12.1 °C 11.4 °C 1012.8 hPa Calm   5.6 km/h 96 % 0 mm
09:51 12.1 °C 11.4 °C 1012.4 hPa Calm   3.2 km/h 96 % 0 mm
09:55 12 °C 11.4 °C 1012.4 hPa NW 0.8 km/h 3.7 km/h 96 % 0 mm
10:00 12 °C 11.4 °C 1004.6 hPa WNW 2.1 km/h 8 km/h 96 % 0 mm
10:05 11.9 °C 11.3 °C 1012.8 hPa WNW 1.3 km/h 5.6 km/h 96 % 0 mm
10:10 11.9 °C 11.3 °C 1012.8 hPa WNW 4.7 km/h 7.4 km/h 96 % 0 mm
10:15 11.8 °C 11.2 °C 1012.8 hPa NW 1.6 km/h 5.6 km/h 96 % 0 mm
10:20 11.8 °C 11 °C 1012.8 hPa WNW 3.2 km/h 6.4 km/h 95 % 0 mm
10:35 11.6 °C 11 °C 1012.8 hPa WSW 1.9 km/h 5.6 km/h 96 % 0 mm
10:40 11.6 °C 11 °C 1012.8 hPa WSW 3.2 km/h 5.6 km/h 96 % 0 mm
10:45 11.6 °C 10.8 °C 1012.4 hPa WNW 3.9 km/h 9.3 km/h 95 % 0 mm
10:55 11.4 °C 10.6 °C 1012.4 hPa West 3.1 km/h 11.3 km/h 95 % 0 mm
11:00 11.3 °C 10.6 °C 1012.4 hPa NW 0.2 km/h 3.7 km/h 95 % 0 mm
11:05 11.3 °C 10.5 °C 1012.4 hPa WNW 2.6 km/h 9.7 km/h 95 % 0 mm
11:10 11.2 °C 10.4 °C 1012.1 hPa NW 1.9 km/h 5.6 km/h 95 % 0 mm
11:15 11.2 °C 10.4 °C 1012.1 hPa NW 0.2 km/h 1.9 km/h 95 % 0 mm
11:20 11.1 °C 10.3 °C 1011.7 hPa NNE 1.6 km/h 5.6 km/h 95 % 0.25 mm
11:25 11.1 °C 10.3 °C 1011.7 hPa NNE 3.9 km/h 4.8 km/h 95 % 0.25 mm
11:35 11 °C 10.1 °C 1011.7 hPa Calm     94 % 0.25 mm
11:40 11 °C 10.2 °C 1011.7 hPa NE 1.8 km/h 4.8 km/h 95 % 0.25 mm
11:45 11 °C 10.2 °C 1011.7 hPa North 1.1 km/h 1.9 km/h 95 % 0.25 mm
11:51 11 °C 10.2 °C 1011.7 hPa NW 1.6 km/h 4.8 km/h 95 % 0 mm
12:01 11.1 °C 10.1 °C 1012.1 hPa WNW 4 km/h 7.4 km/h 94 % 0.25 mm
12:11 11.1 °C 10.1 °C 1012.1 hPa WNW 0.2 km/h 1.9 km/h 94 % 0.25 mm
12:16 11 °C 10.1 °C 1012.1 hPa West 0.3 km/h 3.7 km/h 94 % 0.25 mm
12:21 11 °C 10.1 °C 1003.9 hPa WNW 1.1 km/h 5.6 km/h 94 % 0 mm
12:31 11 °C 9.9 °C 1011.7 hPa WNW 0.5 km/h 5.6 km/h 93 % 0 mm
12:41 11 °C 9.9 °C 1011.4 hPa NW 6.1 km/h 9.3 km/h 93 % 0 mm
12:46 11 °C 9.9 °C 1011.4 hPa West 5 km/h 7.4 km/h 93 % 0 mm
12:51 10.9 °C 9.7 °C 1011.7 hPa WNW 3.7 km/h 11.1 km/h 92 % 0 mm
13:11 10.7 °C 9.3 °C 1011.7 hPa NW 5.1 km/h 11.3 km/h 91 % 0.25 mm
13:16 10.7 °C 9.3 °C 1011.7 hPa WNW 4.8 km/h 5.6 km/h 91 % 0.25 mm
13:21 10.7 °C 9.3 °C 1011.7 hPa WNW 6.1 km/h 11.1 km/h 91 % 0.25 mm
13:26 10.7 °C 9.3 °C 1011.7 hPa WNW 3.7 km/h 6.4 km/h 91 % 0.25 mm
13:32 10.7 °C 9.3 °C 1011.7 hPa West 5.6 km/h 7.4 km/h 91 % 0.25 mm
13:37 10.7 °C 9.2 °C 1011.7 hPa WNW 6.1 km/h 9.3 km/h 90 % 0.25 mm
13:42 10.8 °C 9.2 °C 1003.9 hPa West 9 km/h 14.8 km/h 90 % 0.25 mm
13:47 10.9 °C 9.3 °C 1011.7 hPa WNW 3.2 km/h 13 km/h 90 % 0.25 mm
13:57 11.1 °C 9 °C 1011.7 hPa NW 7.7 km/h 14.8 km/h 87 % 0.25 mm
14:07 10.9 °C 8.7 °C 1011.7 hPa NNW 7.9 km/h 14.5 km/h 86 % 0.25 mm
14:17 10.6 °C 8.2 °C 1012.1 hPa NNW 7.6 km/h 18.5 km/h 85 % 0.25 mm
14:22 10.5 °C 8.3 °C 1012.1 hPa North 12.1 km/h 20.4 km/h 86 % 0.51 mm
14:27 10.1 °C 7.6 °C 1012.1 hPa NNE 14 km/h 22.2 km/h 84 % 0.51 mm
14:33 9.8 °C 6.8 °C 1012.1 hPa North 15.4 km/h 20.4 km/h 82 % 0.51 mm
14:38 9.4 °C 6.7 °C 1012.4 hPa WNW 13 km/h 22.2 km/h 83 % 0.51 mm
14:43 9.3 °C 6.8 °C 1012.4 hPa NNW 7.2 km/h 18.5 km/h 84 % 0.51 mm
14:48 9.2 °C 6.3 °C 1012.4 hPa NNW 7.1 km/h 35.2 km/h 82 % 0.25 mm
14:53 9.2 °C 6.3 °C 1012.4 hPa NNW 11.4 km/h 22.2 km/h 82 % 0.25 mm
15:03 9 °C 5.7 °C 1012.8 hPa NNW 9.2 km/h 22.2 km/h 80 % 0.25 mm
15:08 8.9 °C 5.4 °C 1013.1 hPa NNW 17.1 km/h 31.5 km/h 79 % 0.51 mm
15:13 8.7 °C 5.1 °C 1013.1 hPa NNW 12.2 km/h 24.1 km/h 78 % 0.51 mm
15:18 8.7 °C 5.4 °C 1013.1 hPa NE 10.6 km/h 17.7 km/h 80 % 0.25 mm
15:23 8.6 °C 4.9 °C 1013.1 hPa NW 17.4 km/h 31.5 km/h 78 % 0.25 mm
15:28 8.4 °C 5.2 °C 1005.3 hPa WNW 8.4 km/h 20.4 km/h 80 % 0.25 mm
15:33 8.4 °C 5.2 °C 1013.4 hPa North 9 km/h 18.5 km/h 80 % 0.25 mm
15:38 8.3 °C 4.7 °C 1013.4 hPa NNW 7.7 km/h 16.7 km/h 78 % 0.25 mm
15:53 8.1 °C 4.3 °C 1013.8 hPa NNE 10.9 km/h 18.5 km/h 77 % 0.25 mm
16:08 7.9 °C 4.3 °C 1013.8 hPa NNW 6.4 km/h 14.8 km/h 78 % 0 mm
16:13 7.8 °C 4.1 °C 1014.1 hPa NNW 12.2 km/h 22.2 km/h 77 % 0 mm
16:18 7.8 °C 4 °C 1014.1 hPa NNE 11.1 km/h 20.4 km/h 77 % 0 mm
16:23 7.7 °C 4.1 °C 1014.1 hPa NNW 10 km/h 14.8 km/h 78 % 0 mm
16:33 7.6 °C 3.8 °C 1014.1 hPa NW 6 km/h 13 km/h 77 % 0 mm
16:43 7.4 °C 3.8 °C 1006.3 hPa North 10.6 km/h 16.7 km/h 78 % 0 mm
16:54 7.3 °C 3.7 °C 1014.4 hPa West 5 km/h 11.1 km/h 78 % 0 mm
17:04 7.3 °C 3.7 °C 1014.4 hPa NNW 9 km/h 20.4 km/h 78 % 0 mm
17:09 7.4 °C 3.8 °C 1014.4 hPa North 9.5 km/h 14.8 km/h 78 % 0 mm
17:14 7.4 °C 3.8 °C 1014.8 hPa NW 10.9 km/h 24.1 km/h 78 % 0 mm
17:19 7.4 °C 3.5 °C 1014.8 hPa WNW 6.4 km/h 25.9 km/h 76 % 0 mm
17:29 7.4 °C 2.5 °C 1015.1 hPa WNW 13 km/h 29.6 km/h 71 % 0.25 mm
17:39 7.3 °C 2.4 °C 1015.1 hPa NW 13 km/h 29.6 km/h 71 % 0.25 mm
17:44 7.2 °C 2.5 °C 1015.1 hPa West 6.9 km/h 18.5 km/h 72 % 0.25 mm
17:49 7.1 °C 2 °C 1015.5 hPa NNW 11.6 km/h 22.2 km/h 70 % 0.25 mm
18:04 6.8 °C 1.9 °C 1015.1 hPa West 15.1 km/h 24.1 km/h 71 % 0.25 mm
18:09 6.8 °C 2.1 °C 1015.1 hPa NNW 12.9 km/h 29.6 km/h 72 % 0.25 mm
18:14 6.7 °C 1.8 °C 1015.5 hPa NW 17.5 km/h 24.1 km/h 71 % 0.25 mm
18:19 6.7 °C 1.8 °C 1015.5 hPa NW 8.5 km/h 31.5 km/h 71 % 0.25 mm
18:24 6.6 °C 1.7 °C 1007.3 hPa WNW 11.1 km/h 24.1 km/h 71 % 0.25 mm
18:29 6.5 °C 1.6 °C 1015.8 hPa WNW 15.1 km/h 24.1 km/h 71 % 0 mm
18:39 6.4 °C 1.5 °C 1015.5 hPa North 7.2 km/h 22.5 km/h 71 % 0 mm
18:44 6.3 °C 1.7 °C 1015.5 hPa NW 4.5 km/h 11.1 km/h 72 % 0 mm
18:49 6.3 °C 1.2 °C 1015.8 hPa NW 12.6 km/h 22.2 km/h 70 % 0 mm
18:54 6.2 °C 1.5 °C 1016.1 hPa NW 7.1 km/h 14.8 km/h 72 % 0 mm
18:59 6.2 °C 1.3 °C 1016.1 hPa NW 5.5 km/h 20.4 km/h 71 % 0 mm
19:04 6.1 °C 1.4 °C 1016.1 hPa West 13.8 km/h 18.5 km/h 72 % 0 mm
19:09 6.1 °C 1.4 °C 1016.1 hPa NW 6.8 km/h 13 km/h 72 % 0 mm
19:25 6.1 °C 1 °C 1016.5 hPa WNW 18.2 km/h 27.8 km/h 70 % 0 mm
19:30 6 °C 0.9 °C 1016.5 hPa NNW 6.8 km/h 24.1 km/h 70 % 0 mm
19:35 5.9 °C 0.7 °C 1016.8 hPa NNW 14 km/h 24.1 km/h 69 % 0 mm
19:40 5.9 °C 0.8 °C 1016.8 hPa North 10.1 km/h 25.9 km/h 70 % 0 mm
19:45 5.8 °C 0.6 °C 1016.8 hPa WNW 10.9 km/h 20.4 km/h 69 % 0 mm
19:50 5.8 °C 0.7 °C 1016.8 hPa WSW 9.5 km/h 20.4 km/h 70 % 0 mm
19:57 5.6 °C 0.1 °C 1016.5 hPa NW 8.7 km/h 16.7 km/h 68 % 0 mm
20:02 5.5 °C 0.3 °C 1016.8 hPa North 12.6 km/h 22.2 km/h 69 % 0 mm
20:07 5.4 °C 0.2 °C 1016.8 hPa NNW 13 km/h 18.5 km/h 69 % 0 mm
20:12 5.4 °C -0.1 °C 1016.8 hPa NNW 9.8 km/h 24.1 km/h 68 % 0 mm
20:27 5.2 °C 0.2 °C 1016.8 hPa NNE 9.2 km/h 16.7 km/h 70 % 0 mm
20:33 5.2 °C -0.1 °C 1017.2 hPa NW 12.7 km/h 14.8 km/h 69 % 0 mm
20:38 5.1 °C -0.3 °C 1017.2 hPa NW 10 km/h 11.1 km/h 68 % 0 mm
20:48 5 °C -0.2 °C 1017.5 hPa NNE 9.3 km/h 18.5 km/h 69 % 0 mm
20:53 4.9 °C -0.3 °C 1017.5 hPa WNW 6.6 km/h 14.8 km/h 69 % 0 mm
20:58 4.9 °C -0.3 °C 1017.5 hPa West 7.6 km/h 13 km/h 69 % 0 mm
21:03 4.8 °C -0.4 °C 1017.5 hPa NW 6.6 km/h 18.5 km/h 69 % 0 mm
21:08 4.8 °C -0.4 °C 1017.5 hPa WNW 8.9 km/h 18.5 km/h 69 % 0 mm
21:13 4.7 °C -0.3 °C 1017.5 hPa NW 4.2 km/h 11.1 km/h 70 % 0 mm
21:33 4.6 °C -0.7 °C 1009.7 hPa NW 9 km/h 22.2 km/h 69 % 0 mm
21:38 4.5 °C -0.7 °C 1017.8 hPa NNW 7.2 km/h 12.9 km/h 69 % 0 mm
21:48 4.4 °C -0.6 °C 1017.8 hPa NNW 5.5 km/h 9.7 km/h 70 % 0 mm
21:53 4.4 °C -0.6 °C 1017.8 hPa West 9.8 km/h 14.8 km/h 70 % 0 mm
21:58 4.3 °C -0.8 °C 1017.8 hPa NNW 6 km/h 16.7 km/h 69 % 0 mm
22:04 4.3 °C -0.7 °C 1017.8 hPa NW 5.5 km/h 17.7 km/h 70 % 0 mm
22:09 4.3 °C -0.5 °C 1017.8 hPa NW 5.5 km/h 13 km/h 71 % 0 mm
22:15 4.2 °C -0.8 °C 1017.8 hPa WSW 8 km/h 22.2 km/h 70 % 0 mm
22:21 4.2 °C -0.8 °C 1017.8 hPa WNW 12.1 km/h 18.5 km/h 70 % 0 mm
22:24 4.1 °C -0.7 °C 1017.8 hPa NW 5.3 km/h 18.5 km/h 71 % 0 mm
22:25 4.1 °C -0.7 °C 1010 hPa NNW 3.7 km/h 11.1 km/h 71 % 0 mm
22:26 4.1 °C -0.7 °C 1017.8 hPa WNW 4.8 km/h 12.9 km/h 71 % 0 mm
22:31 4.1 °C -0.7 °C 1010 hPa WNW 6 km/h 16.7 km/h 71 % 0 mm
22:36 4 °C -1 °C 1017.8 hPa West 9.2 km/h 14.8 km/h 70 % 0 mm
22:41 3.9 °C -1.2 °C 1018.2 hPa East 8.2 km/h 13 km/h 69 % 0 mm
22:51 3.9 °C -1.3 °C 1010.4 hPa West 5 km/h 20.4 km/h 69 % 0 mm
22:56 3.8 °C -1.2 °C 1018.2 hPa NW 9.7 km/h 18.5 km/h 70 % 0 mm
23:02 3.8 °C -1.2 °C 1018.5 hPa WNW 7.6 km/h 11.3 km/h 70 % 0 mm
23:12 3.8 °C -1.2 °C 1018.5 hPa NW 4.7 km/h 14.8 km/h 70 % 0 mm
23:22 3.7 °C -1.2 °C 1018.5 hPa West 5.3 km/h 14.8 km/h 70 % 0 mm
23:27 3.7 °C -1.5 °C 1018.5 hPa NNW 2.1 km/h 6.4 km/h 69 % 0 mm
23:32 3.6 °C -1.3 °C 1018.5 hPa North 6.8 km/h 19.3 km/h 70 % 0 mm
23:37 3.6 °C -1.4 °C 1018.5 hPa West 3.4 km/h 6.4 km/h 70 % 0 mm
23:42 3.6 °C -1.6 °C 1018.5 hPa NW 4 km/h 13 km/h 69 % 0 mm
23:47 3.5 °C -1.7 °C 1018.5 hPa WNW 8.2 km/h 16.7 km/h 69 % 0 mm
23:52 3.4 °C -1.7 °C 1018.5 hPa NNW 4 km/h 12.9 km/h 69 % 0 mm
Crab Meadow Weather
Compliments of Weather Underground - 2.5 mb

Script developed by  Jim McMurry - jmcmurry@mwt.net Adapted for the template by  Wim van der Kuil - Leuven-Template.eu

Weather Terms: Ice Storm Warning - Accumulations of 1/4 inch or more of freezing rain.